Time;durP1;ratioP1;P1;durP2;ratioP2;P2;SDS_P1;SDS_P2;PMS_P1;PMS_P2;Temp;Humidity;BMP_temperature;BMP_pressure;BME280_temperature;BME280_humidity;BME280_pressure;Samples;Min_cycle;Max_cycle;Signal;HPM_P1;HPM_P2
2023/01/01 00:01:09;;;;;;;81.68;49.50;;;;;;;;;;5016274;28;20089;-76
2023/01/01 00:03:35;;;;;;;81.53;48.30;;;;;;;;;;4994515;28;20030;-77
2023/01/01 00:06:12;;;;;;;66.30;44.95;;;;;;;;;;4995403;28;20061;-78
2023/01/01 00:08:38;;;;;;;47.63;33.42;;;;;;;;;;4992636;28;20557;-78
2023/01/01 00:11:06;;;;;;;53.92;34.53;;;;;;;;;;4995080;28;20069;-79
2023/01/01 00:13:32;;;;;;;44.53;30.90;;;;;;;;;;4989500;28;20030;-78
2023/01/01 00:16:06;;;;;;;42.20;26.55;;;;;;;;;;4993557;28;20492;-78
2023/01/01 00:18:32;;;;;;;42.67;26.80;;;;;;;;;;4996946;28;20030;-79
2023/01/01 00:21:02;;;;;;;35.20;24.27;;;;;;;;;;4993543;28;20050;-78
2023/01/01 00:23:28;;;;;;;34.40;23.27;;;;;;;;;;4989998;28;20034;-78
2023/01/01 00:25:53;;;;;;;42.47;25.23;;;;;;;;;;4997076;28;20095;-78
2023/01/01 00:28:19;;;;;;;33.40;23.45;;;;;;;;;;4995771;28;20047;-78
2023/01/01 00:30:44;;;;;;;35.95;21.73;;;;;;;;;;4993734;28;20034;-78
2023/01/01 00:33:10;;;;;;;28.15;20.65;;;;;;;;;;4998261;28;20060;-76
2023/01/01 00:35:36;;;;;;;20.27;15.93;;;;;;;;;;4992248;28;20030;-78
2023/01/01 00:38:01;;;;;;;24.02;16.45;;;;;;;;;;4987790;28;20034;-77
2023/01/01 00:40:27;;;;;;;23.55;17.48;;;;;;;;;;4986720;28;20031;-77
2023/01/01 00:42:52;;;;;;;25.48;18.45;;;;;;;;;;4991541;28;20038;-77
2023/01/01 00:45:18;;;;;;;27.08;18.23;;;;;;;;;;4993143;28;20041;-78
2023/01/01 00:47:43;;;;;;;26.05;18.70;;;;;;;;;;4982256;28;20034;-78
2023/01/01 00:50:09;;;;;;;27.08;18.30;;;;;;;;;;4984104;28;20526;-78
2023/01/01 00:52:34;;;;;;;23.67;18.73;;;;;;;;;;4988643;28;20521;-77
2023/01/01 00:55:00;;;;;;;23.42;17.45;;;;;;;;;;4980429;28;20046;-77
2023/01/01 00:57:25;;;;;;;26.45;18.58;;;;;;;;;;4979860;28;20054;-77
2023/01/01 00:59:51;;;;;;;26.20;18.27;;;;;;;;;;4983508;28;20038;-78
2023/01/01 01:02:17;;;;;;;26.42;17.10;;;;;;;;;;4987946;28;20057;-77
2023/01/01 01:04:42;;;;;;;16.35;14.43;;;;;;;;;;4983860;28;20041;-77
2023/01/01 01:07:08;;;;;;;22.33;16.80;;;;;;;;;;4983565;28;20026;-78
2023/01/01 01:09:33;;;;;;;27.20;16.58;;;;;;;;;;4997541;28;20045;-78
2023/01/01 01:11:59;;;;;;;19.65;16.15;;;;;;;;;;4992532;28;20034;-79
2023/01/01 01:14:24;;;;;;;24.10;15.93;;;;;;;;;;4989085;28;20038;-78
2023/01/01 01:16:50;;;;;;;24.20;17.65;;;;;;;;;;5001090;28;20421;-78
2023/01/01 01:19:18;;;;;;;20.52;16.55;;;;;;;;;;4993340;28;20141;-78
2023/01/01 01:21:46;;;;;;;23.42;16.50;;;;;;;;;;4996837;28;20030;-78
2023/01/01 01:24:11;;;;;;;25.98;18.15;;;;;;;;;;4992804;28;20042;-78
2023/01/01 01:26:37;;;;;;;26.17;18.33;;;;;;;;;;4996714;28;20410;-78
2023/01/01 01:29:03;;;;;;;27.17;18.75;;;;;;;;;;4995652;28;20069;-77
2023/01/01 01:31:30;;;;;;;27.05;18.80;;;;;;;;;;4993998;28;20026;-78
2023/01/01 01:33:56;;;;;;;28.70;19.05;;;;;;;;;;4988072;28;20092;-78
2023/01/01 01:36:24;;;;;;;26.55;19.65;;;;;;;;;;4994668;28;20117;-78
2023/01/01 01:38:49;;;;;;;29.67;19.13;;;;;;;;;;4993871;28;20065;-78
2023/01/01 01:41:17;;;;;;;23.10;17.33;;;;;;;;;;4998620;28;20426;-78
2023/01/01 01:43:49;;;;;;;27.38;18.23;;;;;;;;;;4988787;28;20597;-78
2023/01/01 01:46:26;;;;;;;27.13;19.45;;;;;;;;;;4997715;28;20122;-78
2023/01/01 01:48:54;;;;;;;29.58;20.58;;;;;;;;;;4992270;28;20042;-78
2023/01/01 01:51:28;;;;;;;26.85;19.45;;;;;;;;;;4986093;28;20034;-78
2023/01/01 01:53:58;;;;;;;27.23;17.80;;;;;;;;;;4993330;28;20041;-78
2023/01/01 01:56:51;;;;;;;26.55;19.92;;;;;;;;;;4988596;28;20086;-78
2023/01/01 01:59:19;;;;;;;27.80;19.75;;;;;;;;;;4987623;28;20026;-78
2023/01/01 02:01:44;;;;;;;24.30;17.30;;;;;;;;;;4990886;28;20041;-78
2023/01/01 02:04:11;;;;;;;26.45;18.20;;;;;;;;;;4991732;28;20029;-78
2023/01/01 02:06:37;;;;;;;21.50;15.77;;;;;;;;;;4994286;28;20512;-78
2023/01/01 02:09:06;;;;;;;34.78;19.20;;;;;;;;;;4983958;28;20034;-78
2023/01/01 02:11:32;;;;;;;23.80;16.85;;;;;;;;;;4994099;28;20041;-78
2023/01/01 02:13:59;;;;;;;22.38;17.63;;;;;;;;;;4990759;28;20030;-78
2023/01/01 02:16:55;;;;;;;19.92;15.55;;;;;;;;;;4996269;28;20030;-78
2023/01/01 02:19:32;;;;;;;21.60;15.63;;;;;;;;;;4988088;28;20046;-78
2023/01/01 02:22:55;;;;;;;19.17;15.25;;;;;;;;;;4990189;28;20442;-78
2023/01/01 02:25:21;;;;;;;19.02;14.63;;;;;;;;;;4940481;28;20119;-78
2023/01/01 02:27:58;;;;;;;18.25;14.45;;;;;;;;;;4950297;28;20641;-78
2023/01/01 02:30:25;;;;;;;19.95;15.30;;;;;;;;;;4930365;28;20040;-78
2023/01/01 02:32:55;;;;;;;18.83;14.63;;;;;;;;;;4951363;28;20257;-78
2023/01/01 02:35:33;;;;;;;21.50;15.00;;;;;;;;;;4931744;29;20043;-78
2023/01/01 02:38:10;;;;;;;19.35;14.25;;;;;;;;;;4948387;28;20058;-77
2023/01/01 02:40:42;;;;;;;18.23;13.13;;;;;;;;;;4951519;28;20054;-78
2023/01/01 02:43:08;;;;;;;16.15;13.30;;;;;;;;;;4947347;28;20043;-78
2023/01/01 02:45:34;;;;;;;15.60;12.60;;;;;;;;;;4938880;28;20498;-78
2023/01/01 02:48:26;;;;;;;18.58;13.25;;;;;;;;;;4944290;28;20695;-78
2023/01/01 02:50:53;;;;;;;17.08;12.73;;;;;;;;;;4938768;28;20046;-78
2023/01/01 02:53:29;;;;;;;15.45;12.75;;;;;;;;;;4955239;28;20030;-79
2023/01/01 02:56:04;;;;;;;18.15;12.70;;;;;;;;;;4967652;28;20128;-78
2023/01/01 03:02:17;;;;;;;16.48;11.68;;;;;;;;;;4970777;28;20057;-78
2023/01/01 03:04:54;;;;;;;13.20;11.55;;;;;;;;;;4960032;28;20043;-78
2023/01/01 03:07:28;;;;;;;13.25;11.15;;;;;;;;;;4962552;28;20054;-78
2023/01/01 03:10:03;;;;;;;14.02;11.13;;;;;;;;;;4954033;28;20054;-78
2023/01/01 03:13:00;;;;;;;12.85;11.43;;;;;;;;;;4964019;28;20039;-78
2023/01/01 03:15:58;;;;;;;12.05;10.38;;;;;;;;;;4933699;28;20122;-78
2023/01/01 03:18:32;;;;;;;11.60;10.45;;;;;;;;;;4964829;28;20061;-77
2023/01/01 03:21:01;;;;;;;11.95;10.75;;;;;;;;;;4955377;28;20113;-78
2023/01/01 03:23:37;;;;;;;11.40;10.30;;;;;;;;;;4964423;28;20039;-78
2023/01/01 03:26:10;;;;;;;11.68;10.48;;;;;;;;;;4962324;28;20030;-78
2023/01/01 03:28:45;;;;;;;11.60;10.40;;;;;;;;;;4970466;28;20138;-78
2023/01/01 03:31:15;;;;;;;11.25;10.15;;;;;;;;;;4963453;28;20065;-78
2023/01/01 03:33:46;;;;;;;13.23;10.27;;;;;;;;;;4963873;28;20093;-78
2023/01/01 03:36:25;;;;;;;12.77;10.32;;;;;;;;;;4974019;28;20074;-78
2023/01/01 03:38:56;;;;;;;12.20;9.88;;;;;;;;;;4987533;28;20598;-78
2023/01/01 03:41:32;;;;;;;10.93;9.90;;;;;;;;;;4991939;28;20112;-78
2023/01/01 03:44:06;;;;;;;11.68;9.80;;;;;;;;;;4991598;28;20434;-78
2023/01/01 03:46:34;;;;;;;10.18;9.18;;;;;;;;;;4992049;28;20124;-78
2023/01/01 03:49:01;;;;;;;10.30;9.40;;;;;;;;;;4986822;28;20381;-78
2023/01/01 03:52:04;;;;;;;10.95;10.00;;;;;;;;;;4991142;28;20034;-78
2023/01/01 03:54:54;;;;;;;9.82;8.93;;;;;;;;;;4977230;28;20053;-78
2023/01/01 03:57:41;;;;;;;10.25;9.25;;;;;;;;;;4987078;28;20038;-78
2023/01/01 04:00:15;;;;;;;9.80;9.00;;;;;;;;;;5000432;28;20152;-77
2023/01/01 04:02:53;;;;;;;10.85;9.75;;;;;;;;;;4992207;28;20117;-78
2023/01/01 04:05:19;;;;;;;10.00;9.07;;;;;;;;;;4987449;28;20053;-78
2023/01/01 04:07:47;;;;;;;10.05;9.05;;;;;;;;;;4988350;28;20065;-78
2023/01/01 04:10:17;;;;;;;10.10;9.20;;;;;;;;;;4993666;28;20136;-78
2023/01/01 04:12:43;;;;;;;10.45;9.32;;;;;;;;;;4988891;28;20037;-78
2023/01/01 04:15:09;;;;;;;9.95;9.05;;;;;;;;;;4991626;28;20053;-78
2023/01/01 04:17:34;;;;;;;9.80;9.00;;;;;;;;;;4991512;28;20063;-78
2023/01/01 04:20:00;;;;;;;10.05;9.05;;;;;;;;;;4997815;28;20097;-77
2023/01/01 04:22:25;;;;;;;10.65;9.65;;;;;;;;;;4995618;28;20464;-78
2023/01/01 04:24:51;;;;;;;12.32;9.40;;;;;;;;;;4985760;28;20046;-78
2023/01/01 04:27:16;;;;;;;10.52;9.30;;;;;;;;;;4996343;28;20088;-78
2023/01/01 04:29:42;;;;;;;10.45;9.57;;;;;;;;;;4995004;28;20602;-78
2023/01/01 04:32:08;;;;;;;9.55;8.77;;;;;;;;;;4994793;28;20100;-78
2023/01/01 04:34:33;;;;;;;10.60;9.52;;;;;;;;;;4985232;28;20030;-77
2023/01/01 04:36:59;;;;;;;10.82;9.52;;;;;;;;;;4994475;28;20061;-78
2023/01/01 04:39:25;;;;;;;11.20;8.95;;;;;;;;;;4996982;28;20037;-78
2023/01/01 04:41:51;;;;;;;9.77;8.88;;;;;;;;;;4991202;28;20097;-78
2023/01/01 04:44:17;;;;;;;10.05;9.07;;;;;;;;;;4995255;28;20042;-78
2023/01/01 04:46:43;;;;;;;10.35;9.45;;;;;;;;;;4997983;28;20034;-78
2023/01/01 04:49:08;;;;;;;9.77;8.77;;;;;;;;;;4997686;28;20051;-79
2023/01/01 04:51:34;;;;;;;10.25;9.30;;;;;;;;;;4988158;28;20034;-78
2023/01/01 04:54:01;;;;;;;10.00;9.10;;;;;;;;;;4986679;28;20034;-78
2023/01/01 04:56:27;;;;;;;9.90;9.00;;;;;;;;;;4994556;28;20120;-78
2023/01/01 04:58:52;;;;;;;10.73;9.73;;;;;;;;;;4996088;28;20459;-78
2023/01/01 05:01:21;;;;;;;10.45;9.30;;;;;;;;;;4989365;28;20113;-78
2023/01/01 05:03:46;;;;;;;9.65;8.80;;;;;;;;;;4991326;28;20046;-78
2023/01/01 05:06:12;;;;;;;9.13;8.32;;;;;;;;;;5000022;28;20034;-79
2023/01/01 05:08:40;;;;;;;10.23;9.20;;;;;;;;;;4996301;28;20034;-78
2023/01/01 05:11:16;;;;;;;10.23;9.23;;;;;;;;;;4988709;28;20042;-78
2023/01/01 05:13:43;;;;;;;10.38;9.38;;;;;;;;;;4986578;28;20034;-78
2023/01/01 05:16:12;;;;;;;9.73;8.75;;;;;;;;;;5001306;28;20104;-78
2023/01/01 05:18:38;;;;;;;10.57;9.10;;;;;;;;;;4993020;28;20810;-78
2023/01/01 05:21:07;;;;;;;10.80;9.52;;;;;;;;;;4987479;28;20034;-78
2023/01/01 05:23:33;;;;;;;10.57;9.60;;;;;;;;;;4986615;28;20038;-78
2023/01/01 05:25:58;;;;;;;10.00;9.00;;;;;;;;;;5000543;28;20621;-78
2023/01/01 05:28:24;;;;;;;10.18;9.27;;;;;;;;;;4991946;28;20405;-78
2023/01/01 05:30:51;;;;;;;9.68;8.68;;;;;;;;;;4992687;28;20037;-78
2023/01/01 05:33:17;;;;;;;10.02;9.02;;;;;;;;;;4988015;28;20026;-78
2023/01/01 05:35:43;;;;;;;9.40;8.60;;;;;;;;;;4984001;28;20089;-77
2023/01/01 05:38:09;;;;;;;13.60;9.63;;;;;;;;;;4992484;28;20030;-78
2023/01/01 05:40:37;;;;;;;10.00;9.10;;;;;;;;;;4997266;28;20026;-78
2023/01/01 05:43:03;;;;;;;9.85;8.93;;;;;;;;;;4990117;28;20054;-78
2023/01/01 05:45:28;;;;;;;10.63;9.60;;;;;;;;;;4990339;28;20068;-78
2023/01/01 05:47:55;;;;;;;11.05;9.63;;;;;;;;;;4987516;28;20033;-78
2023/01/01 05:50:21;;;;;;;10.45;9.45;;;;;;;;;;4992621;28;20034;-78
2023/01/01 05:52:46;;;;;;;12.60;9.70;;;;;;;;;;4986595;28;20080;-78
2023/01/01 05:55:12;;;;;;;10.90;8.52;;;;;;;;;;4981966;28;20101;-77
2023/01/01 05:57:38;;;;;;;10.32;9.30;;;;;;;;;;4978361;28;20023;-77
2023/01/01 06:00:04;;;;;;;9.68;8.75;;;;;;;;;;4979865;28;20525;-77
2023/01/01 06:02:32;;;;;;;13.43;9.43;;;;;;;;;;5003688;28;20042;-78
2023/01/01 06:04:57;;;;;;;13.40;9.55;;;;;;;;;;5007063;28;20076;-77
2023/01/01 06:07:23;;;;;;;9.57;8.77;;;;;;;;;;4987068;28;20038;-78
2023/01/01 06:09:48;;;;;;;9.80;8.80;;;;;;;;;;4992113;28;20104;-78
2023/01/01 06:12:14;;;;;;;9.35;8.45;;;;;;;;;;4989699;28;20034;-77
2023/01/01 06:14:39;;;;;;;10.23;9.32;;;;;;;;;;4988322;28;20107;-78
2023/01/01 06:17:05;;;;;;;10.30;9.30;;;;;;;;;;4992345;28;20152;-77
2023/01/01 06:19:31;;;;;;;9.68;8.73;;;;;;;;;;4988140;28;20030;-77
2023/01/01 06:21:56;;;;;;;10.63;8.98;;;;;;;;;;4987582;28;20072;-76
2023/01/01 06:24:22;;;;;;;9.45;8.70;;;;;;;;;;4990465;28;20121;-77
2023/01/01 06:26:47;;;;;;;12.13;8.98;;;;;;;;;;4993980;28;20041;-77
2023/01/01 06:29:13;;;;;;;9.77;8.88;;;;;;;;;;4986613;28;20042;-77
2023/01/01 06:31:38;;;;;;;10.68;9.57;;;;;;;;;;4986706;28;20030;-76
2023/01/01 06:34:04;;;;;;;12.20;8.50;;;;;;;;;;4996369;28;20034;-77
2023/01/01 06:36:29;;;;;;;10.05;9.07;;;;;;;;;;4987583;28;20042;-77
2023/01/01 06:38:57;;;;;;;10.25;9.35;;;;;;;;;;4989322;28;20038;-76
2023/01/01 06:41:26;;;;;;;11.00;9.02;;;;;;;;;;4992950;28;20027;-76
2023/01/01 06:43:53;;;;;;;10.90;8.00;;;;;;;;;;4991680;28;20027;-77
2023/01/01 06:46:22;;;;;;;10.40;9.18;;;;;;;;;;4993079;28;20038;-76
2023/01/01 06:48:49;;;;;;;9.85;9.05;;;;;;;;;;4990270;28;20519;-76
2023/01/01 06:51:23;;;;;;;9.32;8.52;;;;;;;;;;4988585;28;20077;-77
2023/01/01 06:53:50;;;;;;;9.32;8.52;;;;;;;;;;4988849;28;20026;-76
2023/01/01 06:56:16;;;;;;;10.38;9.23;;;;;;;;;;4984777;28;20624;-76
2023/01/01 06:58:42;;;;;;;9.60;8.73;;;;;;;;;;4992652;28;20034;-76
2023/01/01 07:01:17;;;;;;;10.00;9.13;;;;;;;;;;4991831;28;20105;-76
2023/01/01 07:03:48;;;;;;;9.32;8.50;;;;;;;;;;4991669;28;20049;-76
2023/01/01 07:06:14;;;;;;;9.63;8.80;;;;;;;;;;4987214;28;20657;-76
2023/01/01 07:08:39;;;;;;;9.90;8.98;;;;;;;;;;4989466;28;20044;-76
2023/01/01 07:11:05;;;;;;;9.82;9.00;;;;;;;;;;4991415;28;20045;-76
2023/01/01 07:13:30;;;;;;;10.68;9.43;;;;;;;;;;4991949;28;20039;-76
2023/01/01 07:15:56;;;;;;;10.15;9.15;;;;;;;;;;4986623;28;20061;-77
2023/01/01 07:18:23;;;;;;;10.05;9.15;;;;;;;;;;4994097;28;20045;-76
2023/01/01 07:20:55;;;;;;;10.20;9.20;;;;;;;;;;4995986;28;20076;-76
2023/01/01 07:23:22;;;;;;;10.85;9.57;;;;;;;;;;4994057;28;20104;-76
2023/01/01 07:25:48;;;;;;;17.98;12.82;;;;;;;;;;4999833;28;20074;-76
2023/01/01 07:28:13;;;;;;;33.10;22.60;;;;;;;;;;4992657;28;20030;-76
2023/01/01 07:30:39;;;;;;;36.22;25.05;;;;;;;;;;4999210;28;20505;-76
2023/01/01 07:33:05;;;;;;;36.88;25.80;;;;;;;;;;4989782;28;20041;-76
2023/01/01 07:35:30;;;;;;;41.08;27.08;;;;;;;;;;4996328;28;20445;-76
2023/01/01 07:37:56;;;;;;;40.63;25.38;;;;;;;;;;4997356;28;20052;-76
2023/01/01 07:40:21;;;;;;;40.22;26.25;;;;;;;;;;4996234;28;20843;-76
2023/01/01 07:42:47;;;;;;;33.35;22.35;;;;;;;;;;4994147;28;20050;-76
2023/01/01 07:45:13;;;;;;;41.38;25.58;;;;;;;;;;5000317;28;20076;-76
2023/01/01 07:47:38;;;;;;;39.05;25.65;;;;;;;;;;4999015;28;20029;-76
2023/01/01 07:50:04;;;;;;;37.75;23.40;;;;;;;;;;4998207;28;20034;-76
2023/01/01 07:52:30;;;;;;;32.20;22.63;;;;;;;;;;4996794;28;20038;-77
2023/01/01 07:54:55;;;;;;;28.88;19.98;;;;;;;;;;4997740;28;20077;-76
2023/01/01 07:57:21;;;;;;;31.27;20.63;;;;;;;;;;4997689;28;20192;-75
2023/01/01 07:59:46;;;;;;;22.13;17.55;;;;;;;;;;4993284;28;20050;-77
2023/01/01 08:02:12;;;;;;;22.33;17.13;;;;;;;;;;4993432;28;20030;-77
2023/01/01 08:04:38;;;;;;;27.58;17.15;;;;;;;;;;4994712;28;20733;-76
2023/01/01 08:07:04;;;;;;;20.40;15.63;;;;;;;;;;4994472;28;20125;-76
2023/01/01 08:09:30;;;;;;;19.63;16.13;;;;;;;;;;4993286;28;20125;-76
2023/01/01 08:11:57;;;;;;;23.27;16.48;;;;;;;;;;4993564;28;20505;-78
2023/01/01 08:14:24;;;;;;;20.67;16.25;;;;;;;;;;4987846;28;20034;-76
2023/01/01 08:16:52;;;;;;;22.55;15.82;;;;;;;;;;4989308;28;20121;-78
2023/01/01 08:19:17;;;;;;;17.70;15.38;;;;;;;;;;4994075;28;20058;-75
2023/01/01 08:21:43;;;;;;;18.98;16.13;;;;;;;;;;4992372;28;20129;-76
2023/01/01 08:24:08;;;;;;;21.25;16.52;;;;;;;;;;4992798;28;20023;-76
2023/01/01 08:26:35;;;;;;;24.60;15.88;;;;;;;;;;4995952;28;20037;-77
2023/01/01 08:29:04;;;;;;;21.02;15.73;;;;;;;;;;4998902;28;20117;-76
2023/01/01 08:31:29;;;;;;;25.42;17.63;;;;;;;;;;4993521;28;20040;-77
2023/01/01 08:33:55;;;;;;;23.45;17.08;;;;;;;;;;4993861;28;20119;-76
2023/01/01 08:36:21;;;;;;;25.85;17.13;;;;;;;;;;4998459;28;20030;-77
2023/01/01 08:38:46;;;;;;;52.15;27.58;;;;;;;;;;4999123;28;20035;-79
2023/01/01 08:41:12;;;;;;;40.85;25.23;;;;;;;;;;4995227;28;20135;-78
2023/01/01 08:43:37;;;;;;;47.88;31.08;;;;;;;;;;4997620;28;20030;-75
2023/01/01 08:46:03;;;;;;;61.95;36.45;;;;;;;;;;4994907;28;20034;-77
2023/01/01 08:48:29;;;;;;;28.30;20.90;;;;;;;;;;4992904;28;20030;-78
2023/01/01 08:50:58;;;;;;;20.05;15.50;;;;;;;;;;4998928;28;20489;-78
2023/01/01 08:53:26;;;;;;;18.20;13.73;;;;;;;;;;4997186;28;20026;-76
2023/01/01 08:55:59;;;;;;;13.63;11.48;;;;;;;;;;4995959;28;20041;-76
2023/01/01 08:58:25;;;;;;;13.85;11.15;;;;;;;;;;4991846;28;20037;-78
2023/01/01 09:00:51;;;;;;;12.68;10.80;;;;;;;;;;4998116;28;20036;-77
2023/01/01 09:03:17;;;;;;;11.40;10.30;;;;;;;;;;4989264;28;20034;-78
2023/01/01 09:05:44;;;;;;;12.25;10.93;;;;;;;;;;4996458;28;20039;-78
2023/01/01 09:08:14;;;;;;;12.65;11.02;;;;;;;;;;4988696;28;20150;-77
2023/01/01 09:10:42;;;;;;;130.77;40.17;;;;;;;;;;4996949;28;20118;-79
2023/01/01 09:13:13;;;;;;;56.35;24.90;;;;;;;;;;4999386;28;20453;-78
2023/01/01 09:15:41;;;;;;;57.97;24.58;;;;;;;;;;4991443;28;20062;-77
2023/01/01 09:18:07;;;;;;;73.32;27.63;;;;;;;;;;4989732;28;20037;-76
2023/01/01 09:20:33;;;;;;;42.28;19.50;;;;;;;;;;4996556;28;20037;-74
2023/01/01 09:22:58;;;;;;;26.58;16.33;;;;;;;;;;4997650;28;20469;-76
2023/01/01 09:25:24;;;;;;;53.13;22.88;;;;;;;;;;4998354;28;20494;-77
2023/01/01 09:27:59;;;;;;;15.35;11.50;;;;;;;;;;4997889;28;20057;-77
2023/01/01 09:30:25;;;;;;;44.95;20.63;;;;;;;;;;4991344;28;20038;-77
2023/01/01 09:32:51;;;;;;;45.13;19.67;;;;;;;;;;5006904;28;20034;-75
2023/01/01 09:35:16;;;;;;;13.73;11.70;;;;;;;;;;5012319;28;20029;-75
2023/01/01 09:37:42;;;;;;;13.25;10.45;;;;;;;;;;4995276;28;20050;-77
2023/01/01 09:40:17;;;;;;;12.98;10.88;;;;;;;;;;4990820;28;20111;-78
2023/01/01 09:42:51;;;;;;;12.82;10.90;;;;;;;;;;4990898;28;20053;-79
2023/01/01 09:45:27;;;;;;;13.02;11.23;;;;;;;;;;4994441;28;20061;-79
2023/01/01 09:47:57;;;;;;;14.68;10.63;;;;;;;;;;4995275;28;20034;-75
2023/01/01 09:50:30;;;;;;;14.30;11.02;;;;;;;;;;4995860;28;20034;-79
2023/01/01 09:52:59;;;;;;;97.07;34.40;;;;;;;;;;4989480;28;20041;-77
2023/01/01 09:55:26;;;;;;;;;;;;;;;;;;5000565;28;20041;-77
2023/01/01 09:57:54;;;;;;;16.75;12.45;;;;;;;;;;4996363;28;19965;-76
2023/01/01 10:00:20;;;;;;;12.35;10.98;;;;;;;;;;4992162;28;20041;-80
2023/01/01 10:03:05;;;;;;;12.05;10.85;;;;;;;;;;4995181;28;20042;-78
2023/01/01 10:05:38;;;;;;;39.30;18.92;;;;;;;;;;4978899;28;20141;-78
2023/01/01 10:08:03;;;;;;;24.63;14.52;;;;;;;;;;4988430;28;20485;-79
2023/01/01 10:10:39;;;;;;;11.73;9.73;;;;;;;;;;4985997;28;20093;-79
2023/01/01 10:13:35;;;;;;;69.05;29.92;;;;;;;;;;4991111;28;20042;-77
2023/01/01 10:16:17;;;;;;;14.70;10.77;;;;;;;;;;4991306;28;20038;-79
2023/01/01 10:18:46;;;;;;;22.27;11.45;;;;;;;;;;4984624;28;20711;-78
2023/01/01 10:21:23;;;;;;;14.95;12.43;;;;;;;;;;4992989;28;20045;-77
2023/01/01 10:23:53;;;;;;;32.03;18.45;;;;;;;;;;4990199;28;20524;-77
2023/01/01 10:26:23;;;;;;;15.85;10.93;;;;;;;;;;4984386;28;20123;-78
2023/01/01 10:29:01;;;;;;;136.05;49.95;;;;;;;;;;4990997;28;20053;-77
2023/01/01 10:31:37;;;;;;;12.30;10.93;;;;;;;;;;4983356;28;20030;-78
2023/01/01 10:34:26;;;;;;;18.73;13.07;;;;;;;;;;4985521;28;20038;-79
2023/01/01 10:36:56;;;;;;;15.93;10.93;;;;;;;;;;4983605;28;20101;-79
2023/01/01 10:39:22;;;;;;;;;;;;;;;;;;4987692;28;20038;-77
2023/01/01 10:41:47;;;;;;;69.38;28.60;;;;;;;;;;4985912;28;19922;-77
2023/01/01 10:44:17;;;;;;;15.23;10.30;;;;;;;;;;4983718;28;20069;-80
2023/01/01 10:46:49;;;;;;;10.52;9.27;;;;;;;;;;4987583;28;20061;-78
2023/01/01 10:49:15;;;;;;;11.88;10.10;;;;;;;;;;4989192;28;20034;-79
2023/01/01 10:51:47;;;;;;;12.63;11.43;;;;;;;;;;4994614;28;20446;-80
2023/01/01 10:54:22;;;;;;;56.70;43.30;;;;;;;;;;4995681;28;20113;-78
2023/01/01 10:56:47;;;;;;;14.70;11.30;;;;;;;;;;4994898;28;20053;-80
2023/01/01 10:59:37;;;;;;;10.57;9.57;;;;;;;;;;4999518;28;20045;-80
2023/01/01 11:02:14;;;;;;;10.52;9.25;;;;;;;;;;4996868;28;20038;-77
2023/01/01 11:04:39;;;;;;;10.55;9.45;;;;;;;;;;4991476;28;20380;-79
2023/01/01 11:07:06;;;;;;;9.88;8.98;;;;;;;;;;4989433;28;20505;-79
2023/01/01 11:09:35;;;;;;;9.02;8.10;;;;;;;;;;5002776;28;20068;-79
2023/01/01 11:12:06;;;;;;;10.10;8.20;;;;;;;;;;5002885;28;20813;-79
2023/01/01 11:14:35;;;;;;;8.68;7.97;;;;;;;;;;4998594;28;20039;-79
2023/01/01 11:17:00;;;;;;;9.80;8.05;;;;;;;;;;4996491;28;20678;-77
2023/01/01 11:19:38;;;;;;;8.80;8.10;;;;;;;;;;4997292;28;20034;-79
2023/01/01 11:22:05;;;;;;;9.77;8.48;;;;;;;;;;5003893;28;20038;-77
2023/01/01 11:24:32;;;;;;;8.70;7.80;;;;;;;;;;5002998;28;20163;-79
2023/01/01 11:27:30;;;;;;;8.10;7.30;;;;;;;;;;4999050;28;20393;-79
2023/01/01 11:30:25;;;;;;;8.03;7.17;;;;;;;;;;4999958;28;20057;-77
2023/01/01 11:33:00;;;;;;;8.40;7.70;;;;;;;;;;4994358;28;20992;-77
2023/01/01 11:35:30;;;;;;;8.50;7.80;;;;;;;;;;4992776;28;20038;-79
2023/01/01 11:37:57;;;;;;;8.20;7.50;;;;;;;;;;4992989;28;20034;-77
2023/01/01 11:40:37;;;;;;;9.43;8.05;;;;;;;;;;5001045;28;20046;-78
2023/01/01 11:43:05;;;;;;;8.40;7.53;;;;;;;;;;4993254;28;20121;-79
2023/01/01 11:45:33;;;;;;;8.90;7.72;;;;;;;;;;4995169;28;20054;-77
2023/01/01 11:48:02;;;;;;;8.60;7.82;;;;;;;;;;4998337;28;20084;-77
2023/01/01 11:50:31;;;;;;;8.30;7.57;;;;;;;;;;4997743;28;20034;-77
2023/01/01 11:53:17;;;;;;;7.88;7.18;;;;;;;;;;4993457;28;20054;-77
2023/01/01 11:56:02;;;;;;;8.48;6.88;;;;;;;;;;4972721;28;20033;-77
2023/01/01 11:59:12;;;;;;;7.82;7.18;;;;;;;;;;4997021;28;20077;-78
2023/01/01 12:01:52;;;;;;;8.05;7.30;;;;;;;;;;4891393;29;20040;-76
2023/01/01 12:04:25;;;;;;;8.98;7.03;;;;;;;;;;4899214;29;20135;-79
2023/01/01 12:06:51;;;;;;;7.25;6.75;;;;;;;;;;4926199;29;20028;-77
2023/01/01 12:09:29;;;;;;;8.20;7.40;;;;;;;;;;4917920;29;20108;-77
2023/01/01 12:12:04;;;;;;;8.23;6.60;;;;;;;;;;4915574;29;20055;-77
2023/01/01 12:14:39;;;;;;;9.00;6.97;;;;;;;;;;4922608;29;20040;-79
2023/01/01 12:17:18;;;;;;;7.18;6.57;;;;;;;;;;4913230;29;20128;-79
2023/01/01 12:19:59;;;;;;;7.45;6.80;;;;;;;;;;4910501;29;20046;-79
2023/01/01 12:22:25;;;;;;;8.10;7.30;;;;;;;;;;4919460;29;20039;-79
2023/01/01 12:24:52;;;;;;;7.25;6.63;;;;;;;;;;4897673;29;20052;-78
2023/01/01 12:27:39;;;;;;;8.02;7.22;;;;;;;;;;4912536;29;20043;-77
2023/01/01 12:30:22;;;;;;;8.93;7.10;;;;;;;;;;4912512;29;20135;-78
2023/01/01 12:33:10;;;;;;;7.25;6.53;;;;;;;;;;4913441;29;20547;-78
2023/01/01 12:36:04;;;;;;;11.70;10.40;;;;;;;;;;4909070;29;20786;-77
2023/01/01 12:38:58;;;;;;;9.38;8.07;;;;;;;;;;4988457;28;20121;-78
2023/01/01 12:41:43;;;;;;;8.40;6.78;;;;;;;;;;4996421;28;20030;-77
2023/01/01 12:44:34;;;;;;;7.63;7.07;;;;;;;;;;4992027;28;20521;-79
2023/01/01 12:47:21;;;;;;;7.55;7.05;;;;;;;;;;4986083;28;20077;-77
2023/01/01 12:49:56;;;;;;;10.75;9.65;;;;;;;;;;4986471;28;20039;-81
2023/01/01 12:52:40;;;;;;;9.43;8.52;;;;;;;;;;4999041;28;20043;-79
2023/01/01 12:55:23;;;;;;;11.43;10.32;;;;;;;;;;4993485;28;20038;-76
2023/01/01 12:57:53;;;;;;;16.60;13.13;;;;;;;;;;4990758;28;20038;-78
2023/01/01 13:00:19;;;;;;;16.08;12.95;;;;;;;;;;4994068;28;20038;-77
2023/01/01 13:02:59;;;;;;;16.95;13.25;;;;;;;;;;4995415;28;20045;-79
2023/01/01 13:05:35;;;;;;;16.02;12.10;;;;;;;;;;4986500;28;20393;-79
2023/01/01 13:08:04;;;;;;;13.60;12.00;;;;;;;;;;4998539;28;20121;-79
2023/01/01 13:10:40;;;;;;;16.10;12.48;;;;;;;;;;4995037;28;20045;-81
2023/01/01 13:13:06;;;;;;;14.55;12.38;;;;;;;;;;5004754;28;20668;-82
2023/01/01 13:15:40;;;;;;;14.68;11.70;;;;;;;;;;4996028;28;20055;-81
2023/01/01 13:18:17;;;;;;;13.45;10.70;;;;;;;;;;4989198;28;20037;-77
2023/01/01 13:20:52;;;;;;;13.30;11.23;;;;;;;;;;4998694;28;20034;-78
2023/01/01 13:23:37;;;;;;;16.23;11.68;;;;;;;;;;4985267;28;20457;-79
2023/01/01 13:26:19;;;;;;;13.00;10.32;;;;;;;;;;4987947;28;20085;-80
2023/01/01 13:28:49;;;;;;;11.88;10.57;;;;;;;;;;4987073;28;20062;-80
2023/01/01 13:31:14;;;;;;;12.68;10.30;;;;;;;;;;4983225;28;20053;-80
2023/01/01 13:33:40;;;;;;;14.43;11.07;;;;;;;;;;4996270;28;20750;-80
2023/01/01 13:36:12;;;;;;;12.57;11.25;;;;;;;;;;4991274;28;20173;-80
2023/01/01 13:38:51;;;;;;;12.75;10.75;;;;;;;;;;5009091;28;20474;-79
2023/01/01 13:41:31;;;;;;;14.77;10.23;;;;;;;;;;4979774;28;20031;-81
2023/01/01 13:44:00;;;;;;;12.40;11.27;;;;;;;;;;4992857;28;20173;-79
2023/01/01 13:46:41;;;;;;;13.88;10.70;;;;;;;;;;4988672;28;20043;-80
2023/01/01 13:49:25;;;;;;;13.70;11.02;;;;;;;;;;4984657;28;20034;-79
2023/01/01 13:52:16;;;;;;;11.90;10.70;;;;;;;;;;4992762;28;20093;-78
2023/01/01 13:55:01;;;;;;;11.15;10.10;;;;;;;;;;4989814;28;20042;-78
2023/01/01 13:57:48;;;;;;;12.93;11.52;;;;;;;;;;4995471;28;20037;-79
2023/01/01 14:00:25;;;;;;;13.82;11.45;;;;;;;;;;4984011;28;20085;-80
2023/01/01 14:03:00;;;;;;;11.10;9.88;;;;;;;;;;4994843;28;20059;-78
2023/01/01 14:05:28;;;;;;;10.60;9.50;;;;;;;;;;4989980;28;20034;-79
2023/01/01 14:07:54;;;;;;;9.98;8.98;;;;;;;;;;4993516;28;20054;-78
2023/01/01 14:10:30;;;;;;;11.40;9.80;;;;;;;;;;4996189;28;20047;-80
2023/01/01 14:13:06;;;;;;;12.55;11.30;;;;;;;;;;4995216;28;20030;-81
2023/01/01 14:15:35;;;;;;;10.70;9.52;;;;;;;;;;4990268;28;20038;-79
2023/01/01 14:18:04;;;;;;;10.52;9.52;;;;;;;;;;4990084;28;20086;-78
2023/01/01 14:20:36;;;;;;;11.43;10.13;;;;;;;;;;5002825;28;20050;-78
2023/01/01 14:23:09;;;;;;;13.00;10.02;;;;;;;;;;4995304;28;20034;-77
2023/01/01 14:25:35;;;;;;;10.48;9.48;;;;;;;;;;4994721;28;20072;-79
2023/01/01 14:28:01;;;;;;;10.63;9.52;;;;;;;;;;4992989;28;20050;-79
2023/01/01 14:30:32;;;;;;;10.25;9.35;;;;;;;;;;5005205;28;20058;-79
2023/01/01 14:33:00;;;;;;;10.88;9.43;;;;;;;;;;4995538;28;20469;-76
2023/01/01 14:35:26;;;;;;;10.50;9.35;;;;;;;;;;5009742;28;20034;-77
2023/01/01 14:37:52;;;;;;;11.30;9.40;;;;;;;;;;5006534;28;20517;-79
2023/01/01 14:40:25;;;;;;;10.15;8.70;;;;;;;;;;4993764;28;20034;-78
2023/01/01 14:42:55;;;;;;;9.77;8.85;;;;;;;;;;4988588;28;20106;-79
2023/01/01 14:45:23;;;;;;;9.60;8.52;;;;;;;;;;4989707;28;20037;-79
2023/01/01 14:47:50;;;;;;;10.18;8.77;;;;;;;;;;4998820;28;20041;-78
2023/01/01 14:50:29;;;;;;;15.15;9.18;;;;;;;;;;5000094;28;20041;-78